sensor_id;sensor_type;location;lat;lon;timestamp;pressure;altitude;pressure_sealevel;temperature;humidity
48848;BME280;36611;51.638;5.784;2023-02-13T00:00:09;103616.22;;;11.70;55.78
48848;BME280;36611;51.638;5.784;2023-02-13T00:02:37;103613.47;;;11.72;56.11
48848;BME280;36611;51.638;5.784;2023-02-13T00:05:03;103614.34;;;11.72;55.82
48848;BME280;36611;51.638;5.784;2023-02-13T00:07:30;103600.06;;;11.70;55.82
48848;BME280;36611;51.638;5.784;2023-02-13T00:09:57;103612.63;;;11.70;55.98
48848;BME280;36611;51.638;5.784;2023-02-13T00:12:23;103607.31;;;11.68;56.01
48848;BME280;36611;51.638;5.784;2023-02-13T00:14:50;103608.22;;;11.67;55.89
48848;BME280;36611;51.638;5.784;2023-02-13T00:17:17;103609.13;;;11.68;56.28
48848;BME280;36611;51.638;5.784;2023-02-13T00:19:43;103606.41;;;11.68;56.09
48848;BME280;36611;51.638;5.784;2023-02-13T00:22:10;103596.59;;;11.67;56.17
48848;BME280;36611;51.638;5.784;2023-02-13T00:24:37;103607.31;;;11.68;56.30
48848;BME280;36611;51.638;5.784;2023-02-13T00:27:03;103601.03;;;11.68;56.03
48848;BME280;36611;51.638;5.784;2023-02-13T00:29:30;103601.88;;;11.70;56.00
48848;BME280;36611;51.638;5.784;2023-02-13T00:31:57;103606.38;;;11.69;56.00
48848;BME280;36611;51.638;5.784;2023-02-13T00:34:23;103601.00;;;11.69;56.07
48848;BME280;36611;51.638;5.784;2023-02-13T00:36:50;103607.25;;;11.70;56.07
48848;BME280;36611;51.638;5.784;2023-02-13T00:39:17;103610.81;;;11.70;56.34
48848;BME280;36611;51.638;5.784;2023-02-13T00:41:43;103609.94;;;11.70;56.12
48848;BME280;36611;51.638;5.784;2023-02-13T00:44:10;103604.56;;;11.70;56.36
48848;BME280;36611;51.638;5.784;2023-02-13T00:46:37;103600.09;;;11.69;56.21
48848;BME280;36611;51.638;5.784;2023-02-13T00:49:04;103601.91;;;11.68;56.13
48848;BME280;36611;51.638;5.784;2023-02-13T00:51:33;103596.63;;;11.65;56.13
48848;BME280;36611;51.638;5.784;2023-02-13T00:53:59;103600.25;;;11.64;56.38
48848;BME280;36611;51.638;5.784;2023-02-13T00:56:26;103594.03;;;11.62;56.37
48848;BME280;36611;51.638;5.784;2023-02-13T00:58:53;103601.22;;;11.62;56.37
48848;BME280;36611;51.638;5.784;2023-02-13T01:01:22;103601.22;;;11.62;56.21
48848;BME280;36611;51.638;5.784;2023-02-13T01:03:49;103599.47;;;11.61;56.52
48848;BME280;36611;51.638;5.784;2023-02-13T01:06:17;103597.75;;;11.58;56.29
48848;BME280;36611;51.638;5.784;2023-02-13T01:08:44;103599.63;;;11.56;56.29
48848;BME280;36611;51.638;5.784;2023-02-13T01:11:11;103602.31;;;11.56;56.53
48848;BME280;36611;51.638;5.784;2023-02-13T01:13:37;103599.63;;;11.56;56.62
48848;BME280;36611;51.638;5.784;2023-02-13T01:16:04;103595.16;;;11.55;56.62
48848;BME280;36611;51.638;5.784;2023-02-13T01:18:31;103598.78;;;11.54;56.47
48848;BME280;36611;51.638;5.784;2023-02-13T01:21:05;103595.25;;;11.52;56.70
48848;BME280;36611;51.638;5.784;2023-02-13T01:23:37;103608.66;;;11.54;56.50
48848;BME280;36611;51.638;5.784;2023-02-13T01:26:06;103602.41;;;11.53;56.62
48848;BME280;36611;51.638;5.784;2023-02-13T01:28:36;103603.28;;;11.54;56.80
48848;BME280;36611;51.638;5.784;2023-02-13T01:31:03;103606.03;;;11.52;56.87
48848;BME280;36611;51.638;5.784;2023-02-13T01:33:30;103606.91;;;11.53;56.68
48848;BME280;36611;51.638;5.784;2023-02-13T01:35:56;103606.84;;;11.54;56.87
48848;BME280;36611;51.638;5.784;2023-02-13T01:38:23;103597.91;;;11.54;56.73
48848;BME280;36611;51.638;5.784;2023-02-13T01:40:52;103600.66;;;11.52;56.82
48848;BME280;36611;51.638;5.784;2023-02-13T01:43:21;103600.66;;;11.52;56.73
48848;BME280;36611;51.638;5.784;2023-02-13T01:45:53;103595.31;;;11.51;56.79
48848;BME280;36611;51.638;5.784;2023-02-13T01:48:24;103605.16;;;11.52;57.03
48848;BME280;36611;51.638;5.784;2023-02-13T01:50:56;103604.25;;;11.51;56.98
48848;BME280;36611;51.638;5.784;2023-02-13T01:53:35;103598.00;;;11.51;57.10
48848;BME280;36611;51.638;5.784;2023-02-13T01:56:12;103597.16;;;11.49;56.82
48848;BME280;36611;51.638;5.784;2023-02-13T01:58:43;103591.78;;;11.49;57.04
48848;BME280;36611;51.638;5.784;2023-02-13T02:01:11;103592.75;;;11.46;56.86
48848;BME280;36611;51.638;5.784;2023-02-13T02:03:44;103584.75;;;11.44;57.03
48848;BME280;36611;51.638;5.784;2023-02-13T02:06:22;103582.09;;;11.43;57.03
48848;BME280;36611;51.638;5.784;2023-02-13T02:08:52;103579.34;;;11.44;57.09
48848;BME280;36611;51.638;5.784;2023-02-13T02:14:38;103576.84;;;11.38;57.03
48848;BME280;36611;51.638;5.784;2023-02-13T02:17:08;103577.88;;;11.34;57.00
48848;BME280;36611;51.638;5.784;2023-02-13T02:20:18;103577.97;;;11.31;57.13
48848;BME280;36611;51.638;5.784;2023-02-13T02:36:59;103581.59;;;11.30;57.26
48848;BME280;36611;51.638;5.784;2023-02-13T02:39:46;103569.25;;;11.23;57.08
48848;BME280;36611;51.638;5.784;2023-02-13T02:47:43;103567.78;;;11.11;57.41
48848;BME280;36611;51.638;5.784;2023-02-13T02:56:00;103562.50;;;11.08;57.62
48848;BME280;36611;51.638;5.784;2023-02-13T03:01:28;103563.44;;;11.07;57.53
48848;BME280;36611;51.638;5.784;2023-02-13T03:04:27;103568.84;;;11.06;57.79
48848;BME280;36611;51.638;5.784;2023-02-13T03:07:25;103571.53;;;11.06;57.35
48848;BME280;36611;51.638;5.784;2023-02-13T03:09:55;103573.34;;;11.05;57.59
48848;BME280;36611;51.638;5.784;2023-02-13T03:12:46;103572.56;;;11.02;57.67
48848;BME280;36611;51.638;5.784;2023-02-13T03:15:35;103569.03;;;11.00;57.69
48848;BME280;36611;51.638;5.784;2023-02-13T03:18:24;103559.25;;;10.97;57.65
48848;BME280;36611;51.638;5.784;2023-02-13T03:21:18;103560.22;;;10.95;57.52
48848;BME280;36611;51.638;5.784;2023-02-13T03:24:35;103563.00;;;10.92;57.55
48848;BME280;36611;51.638;5.784;2023-02-13T03:30:20;103558.72;;;10.85;57.64
48848;BME280;36611;51.638;5.784;2023-02-13T03:33:15;103563.34;;;10.79;57.72
48848;BME280;36611;51.638;5.784;2023-02-13T03:35:52;103567.91;;;10.77;57.58
48848;BME280;36611;51.638;5.784;2023-02-13T03:38:50;103560.81;;;10.75;57.47
48848;BME280;36611;51.638;5.784;2023-02-13T03:41:24;103557.41;;;10.68;57.43
48848;BME280;36611;51.638;5.784;2023-02-13T03:46:40;103566.66;;;10.58;57.40
48848;BME280;36611;51.638;5.784;2023-02-13T03:49:15;103569.50;;;10.52;57.47
48848;BME280;36611;51.638;5.784;2023-02-13T03:52:10;103572.28;;;10.49;57.60
48848;BME280;36611;51.638;5.784;2023-02-13T03:57:25;103573.41;;;10.40;57.51
48848;BME280;36611;51.638;5.784;2023-02-13T04:00:14;103574.38;;;10.36;57.53
48848;BME280;36611;51.638;5.784;2023-02-13T04:03:19;103570.91;;;10.33;57.59
48848;BME280;36611;51.638;5.784;2023-02-13T04:05:55;103572.72;;;10.32;57.63
48848;BME280;36611;51.638;5.784;2023-02-13T04:08:27;103578.16;;;10.29;57.80
48848;BME280;36611;51.638;5.784;2023-02-13T04:11:22;103574.69;;;10.26;57.70
48848;BME280;36611;51.638;5.784;2023-02-13T04:14:00;103580.97;;;10.25;57.56
48848;BME280;36611;51.638;5.784;2023-02-13T04:16:40;103573.91;;;10.21;57.58
48848;BME280;36611;51.638;5.784;2023-02-13T04:19:09;103579.34;;;10.17;57.41
48848;BME280;36611;51.638;5.784;2023-02-13T04:21:38;103578.66;;;10.09;57.53
48848;BME280;36611;51.638;5.784;2023-02-13T04:24:06;103575.22;;;10.03;57.44
48848;BME280;36611;51.638;5.784;2023-02-13T04:26:39;103569.06;;;9.99;57.74
48848;BME280;36611;51.638;5.784;2023-02-13T04:29:07;103567.38;;;9.95;57.65
48848;BME280;36611;51.638;5.784;2023-02-13T04:31:34;103573.69;;;9.93;57.49
48848;BME280;36611;51.638;5.784;2023-02-13T04:34:01;103576.50;;;9.88;57.36
48848;BME280;36611;51.638;5.784;2023-02-13T04:36:27;103578.41;;;9.83;57.37
48848;BME280;36611;51.638;5.784;2023-02-13T04:38:54;103582.13;;;9.77;57.65
48848;BME280;36611;51.638;5.784;2023-02-13T04:41:21;103576.88;;;9.73;57.56
48848;BME280;36611;51.638;5.784;2023-02-13T04:43:48;103574.31;;;9.68;57.46
48848;BME280;36611;51.638;5.784;2023-02-13T04:46:18;103570.81;;;9.63;57.40
48848;BME280;36611;51.638;5.784;2023-02-13T04:48:44;103570.88;;;9.60;57.39
48848;BME280;36611;51.638;5.784;2023-02-13T04:51:11;103571.88;;;9.56;57.28
48848;BME280;36611;51.638;5.784;2023-02-13T04:53:38;103560.34;;;9.52;57.36
48848;BME280;36611;51.638;5.784;2023-02-13T04:56:11;103557.72;;;9.49;57.86
48848;BME280;36611;51.638;5.784;2023-02-13T04:58:41;103562.22;;;9.49;57.54
48848;BME280;36611;51.638;5.784;2023-02-13T05:01:15;103553.34;;;9.45;57.60
48848;BME280;36611;51.638;5.784;2023-02-13T05:03:44;103554.31;;;9.43;57.57
48848;BME280;36611;51.638;5.784;2023-02-13T05:06:10;103539.19;;;9.39;57.36
48848;BME280;36611;51.638;5.784;2023-02-13T05:08:37;103541.06;;;9.35;57.49
48848;BME280;36611;51.638;5.784;2023-02-13T05:11:04;103543.88;;;9.31;57.40
48848;BME280;36611;51.638;5.784;2023-02-13T05:13:30;103542.16;;;9.27;57.38
48848;BME280;36611;51.638;5.784;2023-02-13T05:15:57;103548.44;;;9.26;57.60
48848;BME280;36611;51.638;5.784;2023-02-13T05:18:24;103552.06;;;9.23;57.56
48848;BME280;36611;51.638;5.784;2023-02-13T05:20:51;103552.13;;;9.21;57.76
48848;BME280;36611;51.638;5.784;2023-02-13T05:23:36;103553.03;;;9.20;57.69
48848;BME280;36611;51.638;5.784;2023-02-13T05:26:03;103550.38;;;9.19;57.80
48848;BME280;36611;51.638;5.784;2023-02-13T05:28:30;103545.97;;;9.16;57.58
48848;BME280;36611;51.638;5.784;2023-02-13T05:31:15;103544.25;;;9.14;57.69
48848;BME280;36611;51.638;5.784;2023-02-13T05:33:42;103547.88;;;9.11;57.68
48848;BME280;36611;51.638;5.784;2023-02-13T05:36:09;103550.59;;;9.10;57.74
48848;BME280;36611;51.638;5.784;2023-02-13T05:38:35;103547.03;;;9.09;57.94
48848;BME280;36611;51.638;5.784;2023-02-13T05:41:02;103542.56;;;9.08;57.99
48848;BME280;36611;51.638;5.784;2023-02-13T05:43:29;103539.00;;;9.08;57.87
48848;BME280;36611;51.638;5.784;2023-02-13T05:46:06;103547.13;;;9.05;57.83
48848;BME280;36611;51.638;5.784;2023-02-13T05:48:34;103534.63;;;9.04;57.96
48848;BME280;36611;51.638;5.784;2023-02-13T05:51:01;103535.56;;;9.03;57.86
48848;BME280;36611;51.638;5.784;2023-02-13T05:53:29;103532.88;;;9.03;57.98
48848;BME280;36611;51.638;5.784;2023-02-13T05:55:55;103534.66;;;9.02;57.83
48848;BME280;36611;51.638;5.784;2023-02-13T05:58:22;103528.44;;;9.02;57.90
48848;BME280;36611;51.638;5.784;2023-02-13T06:00:49;103535.59;;;9.01;57.80
48848;BME280;36611;51.638;5.784;2023-02-13T06:03:16;103545.44;;;9.01;57.66
48848;BME280;36611;51.638;5.784;2023-02-13T06:05:44;103549.03;;;9.00;57.90
48848;BME280;36611;51.638;5.784;2023-02-13T06:08:10;103550.84;;;8.98;57.96
48848;BME280;36611;51.638;5.784;2023-02-13T06:10:37;103545.50;;;8.98;57.82
48848;BME280;36611;51.638;5.784;2023-02-13T06:13:04;103546.41;;;8.97;57.76
48848;BME280;36611;51.638;5.784;2023-02-13T06:15:30;103545.56;;;8.95;57.80
48848;BME280;36611;51.638;5.784;2023-02-13T06:17:57;103544.69;;;8.91;58.02
48848;BME280;36611;51.638;5.784;2023-02-13T06:20:23;103538.50;;;8.89;57.78
48848;BME280;36611;51.638;5.784;2023-02-13T06:22:51;103541.22;;;8.87;57.91
48848;BME280;36611;51.638;5.784;2023-02-13T06:25:19;103546.59;;;8.86;57.64
48848;BME280;36611;51.638;5.784;2023-02-13T06:27:45;103540.38;;;8.84;57.90
48848;BME280;36611;51.638;5.784;2023-02-13T06:30:13;103544.91;;;8.82;57.91
48848;BME280;36611;51.638;5.784;2023-02-13T06:32:40;103547.63;;;8.80;57.90
48848;BME280;36611;51.638;5.784;2023-02-13T06:35:07;103537.84;;;8.78;57.92
48848;BME280;36611;51.638;5.784;2023-02-13T06:37:34;103540.53;;;8.76;58.08
48848;BME280;36611;51.638;5.784;2023-02-13T06:40:06;103545.09;;;8.73;57.98
48848;BME280;36611;51.638;5.784;2023-02-13T06:42:33;103546.03;;;8.70;58.09
48848;BME280;36611;51.638;5.784;2023-02-13T06:44:59;103551.44;;;8.67;58.13
48848;BME280;36611;51.638;5.784;2023-02-13T06:47:26;103546.19;;;8.63;57.99
48848;BME280;36611;51.638;5.784;2023-02-13T06:49:53;103547.09;;;8.62;58.14
48848;BME280;36611;51.638;5.784;2023-02-13T06:52:19;103548.94;;;8.59;58.09
48848;BME280;36611;51.638;5.784;2023-02-13T06:54:46;103545.38;;;8.59;58.18
48848;BME280;36611;51.638;5.784;2023-02-13T06:57:17;103548.09;;;8.56;58.09
48848;BME280;36611;51.638;5.784;2023-02-13T06:59:46;103552.59;;;8.54;58.00
48848;BME280;36611;51.638;5.784;2023-02-13T07:02:12;103557.13;;;8.52;58.07
48848;BME280;36611;51.638;5.784;2023-02-13T07:04:39;103559.84;;;8.49;58.05
48848;BME280;36611;51.638;5.784;2023-02-13T07:07:06;103552.72;;;8.48;57.95
48848;BME280;36611;51.638;5.784;2023-02-13T07:09:33;103554.59;;;8.44;57.90
48848;BME280;36611;51.638;5.784;2023-02-13T07:12:03;103556.44;;;8.41;58.11
48848;BME280;36611;51.638;5.784;2023-02-13T07:14:30;103568.97;;;8.39;58.03
48848;BME280;36611;51.638;5.784;2023-02-13T07:16:57;103569.84;;;8.39;58.16
48848;BME280;36611;51.638;5.784;2023-02-13T07:19:23;103574.34;;;8.37;58.04
48848;BME280;36611;51.638;5.784;2023-02-13T07:21:50;103583.31;;;8.36;58.13
48848;BME280;36611;51.638;5.784;2023-02-13T07:24:17;103584.19;;;8.37;58.28
48848;BME280;36611;51.638;5.784;2023-02-13T07:26:43;103591.31;;;8.38;58.08
48848;BME280;36611;51.638;5.784;2023-02-13T07:29:10;103585.06;;;8.37;58.23
48848;BME280;36611;51.638;5.784;2023-02-13T07:31:38;103587.72;;;8.39;58.26
48848;BME280;36611;51.638;5.784;2023-02-13T07:34:07;103590.41;;;8.39;58.21
48848;BME280;36611;51.638;5.784;2023-02-13T07:36:33;103582.38;;;8.39;58.06
48848;BME280;36611;51.638;5.784;2023-02-13T07:39:00;103585.91;;;8.39;58.00
48848;BME280;36611;51.638;5.784;2023-02-13T07:41:27;103585.91;;;8.39;58.09
48848;BME280;36611;51.638;5.784;2023-02-13T07:43:54;103587.72;;;8.39;58.18
48848;BME280;36611;51.638;5.784;2023-02-13T07:46:20;103593.06;;;8.39;58.23
48848;BME280;36611;51.638;5.784;2023-02-13T07:48:47;103594.81;;;8.41;58.20
48848;BME280;36611;51.638;5.784;2023-02-13T07:51:14;103590.31;;;8.43;58.25
48848;BME280;36611;51.638;5.784;2023-02-13T07:53:41;103583.97;;;8.47;58.19
48848;BME280;36611;51.638;5.784;2023-02-13T07:56:09;103588.44;;;8.48;58.29
48848;BME280;36611;51.638;5.784;2023-02-13T07:58:37;103587.53;;;8.49;58.47
48848;BME280;36611;51.638;5.784;2023-02-13T08:01:07;103589.28;;;8.50;58.39
48848;BME280;36611;51.638;5.784;2023-02-13T08:03:34;103592.84;;;8.51;58.32
48848;BME280;36611;51.638;5.784;2023-02-13T08:06:01;103594.56;;;8.55;58.60
48848;BME280;36611;51.638;5.784;2023-02-13T08:08:28;103593.59;;;8.59;58.61
48848;BME280;36611;51.638;5.784;2023-02-13T08:10:55;103587.22;;;8.65;58.59
48848;BME280;36611;51.638;5.784;2023-02-13T08:13:49;103594.19;;;8.73;58.90
48848;BME280;36611;51.638;5.784;2023-02-13T08:16:16;103590.47;;;8.80;58.69
48848;BME280;36611;51.638;5.784;2023-02-13T08:18:43;103593.88;;;8.88;58.78
48848;BME280;36611;51.638;5.784;2023-02-13T08:21:10;103596.38;;;8.99;58.94
48848;BME280;36611;51.638;5.784;2023-02-13T08:23:37;103591.69;;;9.10;59.10
48848;BME280;36611;51.638;5.784;2023-02-13T08:26:03;103595.88;;;9.23;59.19
48848;BME280;36611;51.638;5.784;2023-02-13T08:28:30;103592.03;;;9.35;59.13
48848;BME280;36611;51.638;5.784;2023-02-13T08:30:57;103598.88;;;9.48;59.19
48848;BME280;36611;51.638;5.784;2023-02-13T08:33:24;103606.66;;;9.61;59.62
48848;BME280;36611;51.638;5.784;2023-02-13T08:35:50;103616.25;;;9.72;59.62
48848;BME280;36611;51.638;5.784;2023-02-13T08:38:17;103616.84;;;9.85;59.70
48848;BME280;36611;51.638;5.784;2023-02-13T08:40:44;103617.38;;;9.99;59.66
48848;BME280;36611;51.638;5.784;2023-02-13T08:43:10;103622.41;;;10.13;59.77
48848;BME280;36611;51.638;5.784;2023-02-13T08:45:37;103623.03;;;10.26;59.82
48848;BME280;36611;51.638;5.784;2023-02-13T08:48:04;103625.38;;;10.38;59.85
48848;BME280;36611;51.638;5.784;2023-02-13T08:50:30;103622.41;;;10.50;59.79
48848;BME280;36611;51.638;5.784;2023-02-13T08:52:57;103628.38;;;10.61;59.61
48848;BME280;36611;51.638;5.784;2023-02-13T08:55:25;103616.41;;;10.73;59.77
48848;BME280;36611;51.638;5.784;2023-02-13T08:57:52;103625.84;;;10.88;60.02
48848;BME280;36611;51.638;5.784;2023-02-13T09:00:19;103622.69;;;11.04;59.86
48848;BME280;36611;51.638;5.784;2023-02-13T09:02:46;103624.00;;;11.22;60.08
48848;BME280;36611;51.638;5.784;2023-02-13T09:05:13;103618.94;;;11.41;60.12
48848;BME280;36611;51.638;5.784;2023-02-13T09:07:39;103612.97;;;11.59;59.79
48848;BME280;36611;51.638;5.784;2023-02-13T09:10:06;103616.91;;;11.77;59.95
48848;BME280;36611;51.638;5.784;2023-02-13T09:12:33;103614.59;;;11.94;59.87
48848;BME280;36611;51.638;5.784;2023-02-13T09:15:04;103622.19;;;12.09;59.43
48848;BME280;36611;51.638;5.784;2023-02-13T09:17:40;103619.84;;;12.25;59.55
48848;BME280;36611;51.638;5.784;2023-02-13T09:20:07;103621.13;;;12.40;59.26
48848;BME280;36611;51.638;5.784;2023-02-13T09:22:33;103620.59;;;12.55;59.05
48848;BME280;36611;51.638;5.784;2023-02-13T09:25:00;103613.97;;;12.65;58.83
48848;BME280;36611;51.638;5.784;2023-02-13T09:27:29;103623.22;;;12.83;58.77
48848;BME280;36611;51.638;5.784;2023-02-13T09:30:00;103620.84;;;12.99;58.55
48848;BME280;36611;51.638;5.784;2023-02-13T09:32:27;103616.69;;;13.14;58.44
48848;BME280;36611;51.638;5.784;2023-02-13T09:34:54;103618.00;;;13.27;58.27
48848;BME280;36611;51.638;5.784;2023-02-13T09:37:21;103621.22;;;13.36;58.09
48848;BME280;36611;51.638;5.784;2023-02-13T09:39:48;103623.59;;;13.46;57.51
48848;BME280;36611;51.638;5.784;2023-02-13T09:42:21;103619.72;;;13.53;57.10
48848;BME280;36611;51.638;5.784;2023-02-13T09:44:53;103627.50;;;13.60;57.49
48848;BME280;36611;51.638;5.784;2023-02-13T09:49:57;103625.16;;;13.75;56.73
48848;BME280;36611;51.638;5.784;2023-02-13T09:52:27;103621.19;;;13.83;56.50
48848;BME280;36611;51.638;5.784;2023-02-13T09:54:57;103615.66;;;13.86;56.78
48848;BME280;36611;51.638;5.784;2023-02-13T10:00:17;103616.28;;;13.93;56.25
48848;BME280;36611;51.638;5.784;2023-02-13T10:05:41;103622.06;;;14.06;56.20
48848;BME280;36611;51.638;5.784;2023-02-13T10:08:33;103610.97;;;14.13;56.04
48848;BME280;36611;51.638;5.784;2023-02-13T10:13:55;103609.75;;;14.20;55.91
48848;BME280;36611;51.638;5.784;2023-02-13T10:16:29;103614.97;;;14.25;55.49
48848;BME280;36611;51.638;5.784;2023-02-13T10:19:04;103613.75;;;14.32;55.22
48848;BME280;36611;51.638;5.784;2023-02-13T10:21:45;103607.16;;;14.39;55.60
48848;BME280;36611;51.638;5.784;2023-02-13T10:24:34;103606.03;;;14.45;55.23
48848;BME280;36611;51.638;5.784;2023-02-13T10:30:02;103612.53;;;14.61;55.24
48848;BME280;36611;51.638;5.784;2023-02-13T10:32:45;103615.69;;;14.71;54.81
48848;BME280;36611;51.638;5.784;2023-02-13T10:35:20;103615.06;;;14.84;54.96
48848;BME280;36611;51.638;5.784;2023-02-13T10:37:48;103600.16;;;14.96;54.67
48848;BME280;36611;51.638;5.784;2023-02-13T10:40:17;103608.56;;;15.09;54.33
48848;BME280;36611;51.638;5.784;2023-02-13T10:43:20;103609.03;;;15.18;54.33
48848;BME280;36611;51.638;5.784;2023-02-13T10:48:49;103599.59;;;15.46;53.54
48848;BME280;36611;51.638;5.784;2023-02-13T10:51:28;103607.28;;;15.55;53.46
48848;BME280;36611;51.638;5.784;2023-02-13T10:54:08;103604.34;;;15.61;53.58
48848;BME280;36611;51.638;5.784;2023-02-13T10:56:47;103601.25;;;15.69;53.47
48848;BME280;36611;51.638;5.784;2023-02-13T10:59:41;103598.25;;;15.75;53.13
48848;BME280;36611;51.638;5.784;2023-02-13T11:02:30;103595.16;;;15.82;52.63
48848;BME280;36611;51.638;5.784;2023-02-13T11:05:18;103589.13;;;15.95;52.53
48848;BME280;36611;51.638;5.784;2023-02-13T11:07:46;103585.00;;;16.05;52.45
48848;BME280;36611;51.638;5.784;2023-02-13T11:12:44;103584.28;;;16.18;52.18
48848;BME280;36611;51.638;5.784;2023-02-13T11:15:26;103582.94;;;16.27;52.13
48848;BME280;36611;51.638;5.784;2023-02-13T11:18:16;103584.16;;;16.39;51.57
48848;BME280;36611;51.638;5.784;2023-02-13T11:20:45;103578.41;;;16.45;51.47
48848;BME280;36611;51.638;5.784;2023-02-13T11:28:27;103563.16;;;16.60;50.88
48848;BME280;36611;51.638;5.784;2023-02-13T11:31:31;103553.84;;;16.65;51.00
48848;BME280;36611;51.638;5.784;2023-02-13T11:34:23;103552.47;;;16.74;50.96
48848;BME280;36611;51.638;5.784;2023-02-13T11:37:12;103544.78;;;16.82;50.81
48848;BME280;36611;51.638;5.784;2023-02-13T11:39:41;103545.16;;;16.92;50.76
48848;BME280;36611;51.638;5.784;2023-02-13T11:42:41;103540.34;;;16.97;50.29
48848;BME280;36611;51.638;5.784;2023-02-13T11:45:22;103534.50;;;17.04;49.93
48848;BME280;36611;51.638;5.784;2023-02-13T11:47:50;103528.81;;;17.09;49.73
48848;BME280;36611;51.638;5.784;2023-02-13T11:50:42;103534.00;;;17.13;49.56
48848;BME280;36611;51.638;5.784;2023-02-13T11:53:22;103530.16;;;17.18;49.71
48848;BME280;36611;51.638;5.784;2023-02-13T11:56:13;103535.16;;;17.25;49.34
48848;BME280;36611;51.638;5.784;2023-02-13T11:58:40;103535.50;;;17.35;49.63
48848;BME280;36611;51.638;5.784;2023-02-13T12:03:36;103521.47;;;17.42;48.83
48848;BME280;36611;51.638;5.784;2023-02-13T12:06:14;103526.66;;;17.47;48.80
48848;BME280;36611;51.638;5.784;2023-02-13T12:08:44;103531.72;;;17.53;48.48
48848;BME280;36611;51.638;5.784;2023-02-13T12:14:10;103524.78;;;17.63;48.34
48848;BME280;36611;51.638;5.784;2023-02-13T12:16:44;103523.03;;;17.62;48.28
48848;BME280;36611;51.638;5.784;2023-02-13T12:19:17;103515.34;;;17.70;48.57
48848;BME280;36611;51.638;5.784;2023-02-13T12:30:57;103514.38;;;17.87;47.52
48848;BME280;36611;51.638;5.784;2023-02-13T12:33:54;103500.50;;;17.92;47.38
48848;BME280;36611;51.638;5.784;2023-02-13T12:37:01;103506.63;;;17.95;46.98
48848;BME280;36611;51.638;5.784;2023-02-13T12:39:43;103491.19;;;17.96;47.17
48848;BME280;36611;51.638;5.784;2023-02-13T12:45:10;103494.00;;;17.94;47.32
48848;BME280;36611;51.638;5.784;2023-02-13T12:48:23;103492.75;;;18.00;46.86
48848;BME280;36611;51.638;5.784;2023-02-13T12:56:31;103480.56;;;18.21;46.57
48848;BME280;36611;51.638;5.784;2023-02-13T12:59:12;103482.63;;;18.32;46.51
48848;BME280;36611;51.638;5.784;2023-02-13T13:02:08;103481.84;;;18.44;46.62
48848;BME280;36611;51.638;5.784;2023-02-13T13:15:57;103465.78;;;18.69;45.54
48848;BME280;36611;51.638;5.784;2023-02-13T13:23:45;103458.69;;;18.81;45.46
48848;BME280;36611;51.638;5.784;2023-02-13T13:26:34;103453.44;;;18.78;45.28
48848;BME280;36611;51.638;5.784;2023-02-13T13:29:05;103455.47;;;18.75;45.11
48848;BME280;36611;51.638;5.784;2023-02-13T13:31:34;103447.41;;;18.73;45.48
48848;BME280;36611;51.638;5.784;2023-02-13T13:34:06;103449.16;;;18.74;45.07
48848;BME280;36611;51.638;5.784;2023-02-13T13:36:44;103445.25;;;18.78;45.22
48848;BME280;36611;51.638;5.784;2023-02-13T13:39:21;103450.41;;;18.83;45.22
48848;BME280;36611;51.638;5.784;2023-02-13T13:50:24;103429.28;;;19.00;44.74
48848;BME280;36611;51.638;5.784;2023-02-13T13:53:09;103431.69;;;19.05;44.29
48848;BME280;36611;51.638;5.784;2023-02-13T13:58:40;103427.31;;;19.02;44.52
48848;BME280;36611;51.638;5.784;2023-02-13T14:03:42;103424.03;;;18.97;44.24
48848;BME280;36611;51.638;5.784;2023-02-13T14:06:17;103420.84;;;18.91;44.15
48848;BME280;36611;51.638;5.784;2023-02-13T14:13:56;103409.38;;;18.86;44.38
48848;BME280;36611;51.638;5.784;2023-02-13T14:16:44;103421.34;;;18.83;44.31
48848;BME280;36611;51.638;5.784;2023-02-13T14:19:31;103418.59;;;18.83;44.12
48848;BME280;36611;51.638;5.784;2023-02-13T14:24:51;103411.72;;;18.78;43.89
48848;BME280;36611;51.638;5.784;2023-02-13T14:27:21;103405.28;;;18.79;43.64
48848;BME280;36611;51.638;5.784;2023-02-13T14:29:48;103405.28;;;18.79;43.85
48848;BME280;36611;51.638;5.784;2023-02-13T14:32:30;103411.91;;;18.75;43.66
48848;BME280;36611;51.638;5.784;2023-02-13T14:35:13;103403.84;;;18.73;43.79
48848;BME280;36611;51.638;5.784;2023-02-13T14:37:55;103403.94;;;18.71;43.87
48848;BME280;36611;51.638;5.784;2023-02-13T14:48:31;103401.28;;;18.56;44.07
48848;BME280;36611;51.638;5.784;2023-02-13T14:51:00;103402.25;;;18.55;43.98
48848;BME280;36611;51.638;5.784;2023-02-13T14:53:33;103396.91;;;18.53;43.66
48848;BME280;36611;51.638;5.784;2023-02-13T14:56:12;103389.03;;;18.49;43.71
48848;BME280;36611;51.638;5.784;2023-02-13T14:58:47;103392.75;;;18.48;43.66
48848;BME280;36611;51.638;5.784;2023-02-13T15:01:34;103387.41;;;18.46;43.92
48848;BME280;36611;51.638;5.784;2023-02-13T15:04:19;103388.66;;;18.40;44.11
48848;BME280;36611;51.638;5.784;2023-02-13T15:06:48;103394.69;;;18.31;44.22
48848;BME280;36611;51.638;5.784;2023-02-13T15:09:25;103385.47;;;18.20;44.33
48848;BME280;36611;51.638;5.784;2023-02-13T15:11:53;103388.66;;;18.12;44.12
48848;BME280;36611;51.638;5.784;2023-02-13T15:14:33;103389.94;;;18.06;44.06
48848;BME280;36611;51.638;5.784;2023-02-13T15:17:33;103383.81;;;18.03;44.38
48848;BME280;36611;51.638;5.784;2023-02-13T15:20:07;103384.00;;;18.00;44.42
48848;BME280;36611;51.638;5.784;2023-02-13T15:22:45;103377.00;;;17.96;44.35
48848;BME280;36611;51.638;5.784;2023-02-13T15:27:58;103375.63;;;17.89;44.48
48848;BME280;36611;51.638;5.784;2023-02-13T15:30:28;103381.41;;;17.83;44.58
48848;BME280;36611;51.638;5.784;2023-02-13T15:33:03;103384.50;;;17.76;44.46
48848;BME280;36611;51.638;5.784;2023-02-13T15:35:39;103376.72;;;17.70;44.66
48848;BME280;36611;51.638;5.784;2023-02-13T15:38:30;103378.75;;;17.67;44.68